Time;durP1;ratioP1;P1;durP2;ratioP2;P2;SDS_P1;SDS_P2;PMS_P1;PMS_P2;Temp;Humidity;BMP_temperature;BMP_pressure;BME280_temperature;BME280_humidity;BME280_pressure;Samples;Min_cycle;Max_cycle;Signal;HPM_P1;HPM_P2
2023/01/10 00:00:56;;;;;;;1.25;1.10;;;;;;;;;;5135844;27;20265;-89
2023/01/10 00:03:24;;;;;;;1.42;1.27;;;;;;;;;;5136289;27;20282;-89
2023/01/10 00:05:51;;;;;;;1.08;1.00;;;;;;;;;;5136208;27;20237;-90
2023/01/10 00:08:20;;;;;;;2.28;1.88;;;;;;;;;;5135554;27;20285;-90
2023/01/10 00:10:49;;;;;;;1.33;1.20;;;;;;;;;;5136032;27;20223;-89
2023/01/10 00:13:25;;;;;;;1.40;1.30;;;;;;;;;;5136048;27;20636;-90
2023/01/10 00:15:53;;;;;;;1.77;1.67;;;;;;;;;;5136244;27;20191;-90
2023/01/10 00:18:21;;;;;;;1.23;1.13;;;;;;;;;;5132388;27;20290;-90
2023/01/10 00:20:49;;;;;;;1.25;1.25;;;;;;;;;;5115128;28;20314;-89
2023/01/10 00:23:19;;;;;;;1.52;1.30;;;;;;;;;;5115255;28;20222;-90
2023/01/10 00:25:48;;;;;;;2.85;1.27;;;;;;;;;;5115431;28;20208;-89
2023/01/10 00:28:18;;;;;;;1.40;1.40;;;;;;;;;;5114457;28;20736;-90
2023/01/10 00:30:56;;;;;;;1.50;1.40;;;;;;;;;;5115175;28;20258;-89
2023/01/10 00:33:23;;;;;;;1.10;1.10;;;;;;;;;;5115369;28;20203;-89
2023/01/10 00:35:51;;;;;;;1.60;1.50;;;;;;;;;;5115050;28;20219;-89
2023/01/10 00:38:19;;;;;;;1.20;1.13;;;;;;;;;;5114778;28;20231;-90
2023/01/10 00:40:47;;;;;;;1.45;1.35;;;;;;;;;;5114455;28;20315;-90
2023/01/10 00:46:01;;;;;;;1.67;1.58;;;;;;;;;;5114823;28;20654;-89
2023/01/10 00:48:29;;;;;;;3.17;1.60;;;;;;;;;;5118249;27;20293;-90
2023/01/10 00:50:56;;;;;;;2.03;1.92;;;;;;;;;;5135090;27;20665;-90
2023/01/10 00:53:24;;;;;;;2.08;1.70;;;;;;;;;;5134997;27;20201;-90
2023/01/10 00:55:54;;;;;;;1.50;1.40;;;;;;;;;;5135117;27;20282;-89
2023/01/10 00:58:22;;;;;;;1.85;1.75;;;;;;;;;;5134629;27;20209;-90
2023/01/10 01:00:50;;;;;;;2.97;1.90;;;;;;;;;;5134751;27;20657;-90
2023/01/10 01:03:23;;;;;;;1.80;1.70;;;;;;;;;;5135155;27;20727;-90
2023/01/10 01:05:51;;;;;;;2.40;2.17;;;;;;;;;;5134960;27;20286;-89
2023/01/10 01:08:19;;;;;;;1.60;1.50;;;;;;;;;;5134810;27;20203;-88
2023/01/10 01:10:47;;;;;;;1.95;1.83;;;;;;;;;;5134825;27;20215;-89
2023/01/10 01:13:18;;;;;;;1.75;1.63;;;;;;;;;;5134737;27;20237;-89
2023/01/10 01:15:47;;;;;;;1.73;1.60;;;;;;;;;;5134815;27;20613;-89
2023/01/10 01:18:16;;;;;;;2.95;1.92;;;;;;;;;;5132809;27;20199;-89
2023/01/10 01:20:45;;;;;;;1.50;1.40;;;;;;;;;;5113813;28;20230;-89
2023/01/10 01:23:13;;;;;;;1.40;1.30;;;;;;;;;;5114125;28;20652;-89
2023/01/10 01:25:41;;;;;;;1.20;1.17;;;;;;;;;;5113912;28;20227;-89
2023/01/10 01:28:09;;;;;;;1.70;1.60;;;;;;;;;;5113672;28;20728;-89
2023/01/10 01:30:38;;;;;;;2.20;1.60;;;;;;;;;;5113651;28;20314;-89
2023/01/10 01:33:06;;;;;;;2.22;2.13;;;;;;;;;;5114036;28;20196;-89
2023/01/10 01:35:33;;;;;;;1.98;1.77;;;;;;;;;;5113893;28;20222;-89
2023/01/10 01:38:01;;;;;;;1.77;1.60;;;;;;;;;;5113156;28;20245;-90
2023/01/10 01:40:28;;;;;;;1.70;1.60;;;;;;;;;;5113860;28;20318;-90
2023/01/10 01:42:56;;;;;;;1.95;1.83;;;;;;;;;;5113631;28;20282;-90
2023/01/10 01:45:40;;;;;;;1.45;1.35;;;;;;;;;;5113847;28;20282;-90
2023/01/10 01:48:29;;;;;;;2.47;2.10;;;;;;;;;;5113152;27;20556;-89
2023/01/10 01:51:04;;;;;;;2.67;2.47;;;;;;;;;;5134323;27;20721;-89
2023/01/10 01:53:37;;;;;;;2.25;1.98;;;;;;;;;;5134101;27;20233;-89
2023/01/10 01:56:11;;;;;;;3.85;2.28;;;;;;;;;;5133986;27;20192;-90
2023/01/10 01:58:46;;;;;;;3.03;2.75;;;;;;;;;;5133693;27;20791;-90
2023/01/10 02:01:16;;;;;;;2.42;2.17;;;;;;;;;;5133889;27;20305;-89
2023/01/10 02:03:45;;;;;;;2.65;2.08;;;;;;;;;;5134040;27;20264;-89
2023/01/10 02:06:13;;;;;;;2.35;2.25;;;;;;;;;;5133825;27;20299;-89
2023/01/10 02:08:49;;;;;;;4.10;2.00;;;;;;;;;;5132882;27;20281;-89
2023/01/10 02:11:17;;;;;;;2.17;1.98;;;;;;;;;;5133915;27;20215;-90
2023/01/10 02:13:46;;;;;;;1.70;1.48;;;;;;;;;;5133822;27;20282;-90
2023/01/10 02:16:15;;;;;;;1.85;1.65;;;;;;;;;;5133938;27;20629;-90
2023/01/10 02:18:43;;;;;;;6.35;3.08;;;;;;;;;;5127275;27;20200;-90
2023/01/10 02:21:31;;;;;;;1.80;1.70;;;;;;;;;;5112803;28;20314;-89
2023/01/10 02:24:33;;;;;;;3.08;2.42;;;;;;;;;;5113213;28;20210;-89
2023/01/10 02:27:26;;;;;;;4.88;2.85;;;;;;;;;;5113244;28;20274;-90
2023/01/10 02:30:49;;;;;;;2.05;1.85;;;;;;;;;;5111284;28;20202;-90
2023/01/10 02:33:22;;;;;;;4.45;2.50;;;;;;;;;;5105590;28;20214;-90
2023/01/10 02:36:02;;;;;;;2.30;1.83;;;;;;;;;;5113209;28;20183;-89
2023/01/10 02:38:42;;;;;;;2.42;2.20;;;;;;;;;;5112610;28;20214;-90
2023/01/10 02:41:17;;;;;;;5.45;2.45;;;;;;;;;;5112601;28;20219;-90
2023/01/10 02:43:50;;;;;;;4.50;1.90;;;;;;;;;;5113177;28;20219;-90
2023/01/10 02:46:23;;;;;;;2.25;2.10;;;;;;;;;;5112970;28;20210;-90
2023/01/10 02:48:52;;;;;;;2.42;1.65;;;;;;;;;;5119444;28;20697;-89
2023/01/10 02:51:23;;;;;;;1.92;1.77;;;;;;;;;;5133278;27;20219;-89
2023/01/10 02:53:55;;;;;;;4.68;1.83;;;;;;;;;;5133371;27;20593;-89
2023/01/10 02:56:53;;;;;;;1.88;1.65;;;;;;;;;;5133569;27;20621;-90
2023/01/10 02:59:54;;;;;;;2.50;1.67;;;;;;;;;;5133055;27;20194;-90
2023/01/10 03:02:42;;;;;;;3.65;2.28;;;;;;;;;;5133124;27;20297;-90
2023/01/10 03:05:21;;;;;;;2.67;2.15;;;;;;;;;;5133663;27;20195;-90
2023/01/10 03:07:56;;;;;;;2.15;1.95;;;;;;;;;;5133473;27;20203;-90
2023/01/10 03:10:28;;;;;;;3.58;2.53;;;;;;;;;;5133245;27;20332;-90
2023/01/10 03:12:58;;;;;;;5.28;2.40;;;;;;;;;;5133527;27;20187;-90
2023/01/10 03:15:29;;;;;;;5.50;2.42;;;;;;;;;;5133605;27;20202;-89
2023/01/10 03:18:01;;;;;;;4.93;2.53;;;;;;;;;;5133270;27;20290;-89
2023/01/10 03:20:31;;;;;;;2.05;1.80;;;;;;;;;;5114318;28;20220;-89
2023/01/10 03:23:00;;;;;;;6.15;2.63;;;;;;;;;;5116164;28;20220;-90
2023/01/10 03:25:32;;;;;;;5.90;2.40;;;;;;;;;;5116654;28;20279;-90
2023/01/10 03:28:06;;;;;;;8.25;2.67;;;;;;;;;;5116507;28;20223;-90
2023/01/10 03:30:40;;;;;;;5.85;2.65;;;;;;;;;;5116238;28;20311;-89
2023/01/10 03:33:08;;;;;;;5.25;2.65;;;;;;;;;;5116313;28;20266;-89
2023/01/10 03:35:46;;;;;;;3.72;1.92;;;;;;;;;;5116132;28;20219;-90
2023/01/10 03:38:21;;;;;;;3.63;2.33;;;;;;;;;;5115709;28;20267;-90
2023/01/10 03:40:56;;;;;;;3.53;2.67;;;;;;;;;;5116034;28;20223;-90
2023/01/10 03:46:26;;;;;;;3.40;2.35;;;;;;;;;;5116161;28;20179;-89
2023/01/10 03:48:54;;;;;;;6.05;2.80;;;;;;;;;;5122973;27;20194;-90
2023/01/10 03:51:23;;;;;;;2.75;1.75;;;;;;;;;;5136454;27;20253;-89
2023/01/10 03:53:50;;;;;;;4.28;2.60;;;;;;;;;;5136108;27;20274;-89
2023/01/10 03:56:18;;;;;;;1.98;1.83;;;;;;;;;;5136467;27;20579;-89
2023/01/10 03:58:45;;;;;;;3.58;1.95;;;;;;;;;;5135764;27;20286;-89
2023/01/10 04:01:13;;;;;;;6.50;3.63;;;;;;;;;;5136187;27;20647;-89
2023/01/10 04:03:40;;;;;;;5.75;2.47;;;;;;;;;;5136246;27;20191;-89
2023/01/10 04:06:08;;;;;;;5.97;2.10;;;;;;;;;;5136595;27;20209;-90
2023/01/10 04:08:37;;;;;;;2.88;2.00;;;;;;;;;;5134314;27;20207;-90
2023/01/10 04:11:05;;;;;;;5.40;2.92;;;;;;;;;;5135974;27;20310;-89
2023/01/10 04:13:32;;;;;;;6.22;2.70;;;;;;;;;;5136217;27;20287;-90
2023/01/10 04:16:00;;;;;;;3.97;2.35;;;;;;;;;;5136096;27;20203;-89
2023/01/10 04:18:28;;;;;;;4.80;2.72;;;;;;;;;;5132172;27;20291;-90
2023/01/10 04:20:55;;;;;;;3.67;2.45;;;;;;;;;;5115035;28;20330;-89
2023/01/10 04:23:23;;;;;;;5.07;3.65;;;;;;;;;;5115140;28;20229;-89
2023/01/10 04:25:52;;;;;;;4.43;2.53;;;;;;;;;;5115576;28;20195;-89
2023/01/10 04:28:19;;;;;;;4.97;2.58;;;;;;;;;;5114752;28;20195;-89
2023/01/10 04:30:47;;;;;;;4.22;2.38;;;;;;;;;;5114873;28;20223;-89
2023/01/10 04:33:14;;;;;;;2.47;1.80;;;;;;;;;;5115211;28;20274;-90
2023/01/10 04:35:46;;;;;;;4.22;2.58;;;;;;;;;;5115067;28;20207;-90
2023/01/10 04:38:14;;;;;;;5.78;2.55;;;;;;;;;;5114931;28;20200;-89
2023/01/10 04:40:42;;;;;;;5.47;1.80;;;;;;;;;;5115074;28;20220;-89
2023/01/10 04:43:11;;;;;;;3.42;1.50;;;;;;;;;;5114892;28;20220;-90
2023/01/10 04:45:39;;;;;;;7.68;2.50;;;;;;;;;;5115046;28;20200;-89
2023/01/10 04:48:06;;;;;;;4.57;2.45;;;;;;;;;;5114976;27;20224;-90
2023/01/10 04:50:34;;;;;;;5.85;3.15;;;;;;;;;;5135294;27;20257;-90
2023/01/10 04:53:01;;;;;;;4.40;1.83;;;;;;;;;;5135187;27;20310;-89
2023/01/10 04:55:29;;;;;;;3.05;2.00;;;;;;;;;;5135386;27;20202;-90
2023/01/10 04:57:56;;;;;;;4.28;2.15;;;;;;;;;;5135208;27;20658;-90
2023/01/10 05:00:25;;;;;;;5.63;2.50;;;;;;;;;;5134932;27;20265;-90
2023/01/10 05:02:56;;;;;;;6.78;3.55;;;;;;;;;;5135017;27;20310;-89
2023/01/10 05:05:24;;;;;;;9.75;2.97;;;;;;;;;;5135266;27;20299;-89
2023/01/10 05:07:51;;;;;;;2.28;1.73;;;;;;;;;;5135067;27;20285;-90
2023/01/10 05:10:19;;;;;;;1.45;1.17;;;;;;;;;;5134577;27;20230;-90
2023/01/10 05:12:47;;;;;;;1.55;1.30;;;;;;;;;;5135082;27;20211;-90
2023/01/10 05:15:14;;;;;;;3.22;2.25;;;;;;;;;;5134971;27;20277;-89
2023/01/10 05:17:43;;;;;;;2.88;1.77;;;;;;;;;;5134925;27;20718;-89
2023/01/10 05:20:13;;;;;;;1.23;1.20;;;;;;;;;;5115744;27;21105;-89
2023/01/10 05:22:40;;;;;;;1.40;1.30;;;;;;;;;;5114025;28;20212;-90
2023/01/10 05:25:09;;;;;;;1.60;1.50;;;;;;;;;;5114266;28;20210;-89
2023/01/10 05:27:36;;;;;;;2.17;1.90;;;;;;;;;;5114224;28;20696;-90
2023/01/10 05:30:04;;;;;;;2.42;1.70;;;;;;;;;;5113763;28;20291;-89
2023/01/10 05:32:32;;;;;;;2.85;2.15;;;;;;;;;;5114009;28;20196;-90
2023/01/10 05:35:01;;;;;;;2.17;1.50;;;;;;;;;;5114312;28;20203;-89
2023/01/10 05:37:28;;;;;;;1.73;1.63;;;;;;;;;;5113833;28;20667;-89
2023/01/10 05:39:56;;;;;;;2.08;1.63;;;;;;;;;;5113122;28;20204;-90
2023/01/10 05:45:06;;;;;;;11.85;3.15;;;;;;;;;;5117398;28;20188;-91
2023/01/10 05:47:34;;;;;;;2.25;1.90;;;;;;;;;;5113939;28;20203;-90
2023/01/10 05:50:03;;;;;;;2.72;2.50;;;;;;;;;;5139230;27;20206;-91
2023/01/10 05:52:31;;;;;;;7.28;5.10;;;;;;;;;;5137544;27;20222;-91
2023/01/10 05:54:58;;;;;;;10.63;5.75;;;;;;;;;;5134542;27;20286;-90
2023/01/10 05:57:26;;;;;;;5.57;2.92;;;;;;;;;;5134151;27;20191;-91
2023/01/10 05:59:53;;;;;;;5.55;4.15;;;;;;;;;;5133497;27;20221;-90
2023/01/10 06:02:21;;;;;;;5.05;3.70;;;;;;;;;;5134133;27;20251;-91
2023/01/10 06:04:50;;;;;;;9.85;6.07;;;;;;;;;;5134329;27;20282;-91
2023/01/10 06:07:19;;;;;;;11.55;6.60;;;;;;;;;;5134426;27;20681;-91
2023/01/10 06:09:47;;;;;;;9.13;4.20;;;;;;;;;;5133546;27;20202;-90
2023/01/10 06:12:17;;;;;;;7.38;4.05;;;;;;;;;;5134084;27;20225;-91
2023/01/10 06:14:45;;;;;;;6.55;3.03;;;;;;;;;;5134053;27;20203;-91
2023/01/10 06:17:12;;;;;;;5.82;2.58;;;;;;;;;;5134030;27;20274;-90
2023/01/10 06:19:40;;;;;;;1.98;1.52;;;;;;;;;;5119411;27;20655;-90
2023/01/10 06:22:07;;;;;;;1.42;1.33;;;;;;;;;;5113290;28;20219;-90
2023/01/10 06:24:36;;;;;;;2.35;2.13;;;;;;;;;;5112964;28;20223;-91
2023/01/10 06:27:04;;;;;;;1.85;1.45;;;;;;;;;;5113413;28;20295;-91
2023/01/10 06:29:32;;;;;;;1.52;1.42;;;;;;;;;;5113399;28;20595;-89
2023/01/10 06:32:00;;;;;;;1.58;1.35;;;;;;;;;;5114216;28;20243;-92
2023/01/10 06:34:27;;;;;;;2.05;1.63;;;;;;;;;;5113789;28;20640;-91
2023/01/10 06:36:55;;;;;;;3.15;1.95;;;;;;;;;;5113931;28;20187;-92
2023/01/10 06:39:23;;;;;;;4.50;2.60;;;;;;;;;;5114682;28;20663;-92
2023/01/10 06:41:52;;;;;;;2.75;1.70;;;;;;;;;;5134033;28;20239;-92
2023/01/10 06:44:19;;;;;;;2.35;2.10;;;;;;;;;;5133425;28;20758;-92
2023/01/10 06:46:47;;;;;;;4.43;2.45;;;;;;;;;;5134117;28;21031;-92
2023/01/10 06:49:14;;;;;;;7.93;5.10;;;;;;;;;;5134770;28;20298;-93
2023/01/10 06:51:42;;;;;;;4.65;3.15;;;;;;;;;;5134113;28;20242;-91
2023/01/10 06:54:09;;;;;;;5.57;3.00;;;;;;;;;;5134829;27;20203;-91
2023/01/10 06:56:37;;;;;;;3.53;2.28;;;;;;;;;;5137836;27;20291;-91
2023/01/10 06:59:06;;;;;;;4.45;2.05;;;;;;;;;;5137551;27;20677;-91
2023/01/10 07:01:33;;;;;;;2.00;1.70;;;;;;;;;;5137762;27;20657;-90
2023/01/10 07:04:01;;;;;;;1.10;1.10;;;;;;;;;;5137947;27;20219;-91
2023/01/10 07:06:28;;;;;;;1.75;1.65;;;;;;;;;;5137945;27;20281;-92
2023/01/10 07:08:56;;;;;;;1.65;0.95;;;;;;;;;;5137101;27;20198;-91
2023/01/10 07:11:24;;;;;;;2.58;1.40;;;;;;;;;;5137737;27;20222;-91
2023/01/10 07:13:52;;;;;;;2.85;1.27;;;;;;;;;;5137684;27;20581;-91
2023/01/10 07:16:22;;;;;;;1.42;1.30;;;;;;;;;;5137412;27;20289;-92
2023/01/10 07:18:49;;;;;;;1.80;1.30;;;;;;;;;;5130218;27;20298;-91
2023/01/10 07:21:18;;;;;;;3.63;1.27;;;;;;;;;;5116499;28;20306;-92
2023/01/10 07:23:49;;;;;;;1.23;0.90;;;;;;;;;;5116566;28;20211;-92
2023/01/10 07:26:17;;;;;;;1.00;1.00;;;;;;;;;;5116614;28;20180;-92
2023/01/10 07:28:46;;;;;;;1.88;1.30;;;;;;;;;;5116422;28;20751;-92
2023/01/10 07:31:23;;;;;;;1.27;1.10;;;;;;;;;;5116524;28;20219;-91
2023/01/10 07:33:52;;;;;;;1.20;1.05;;;;;;;;;;5116495;28;20203;-91
2023/01/10 07:36:20;;;;;;;1.10;1.00;;;;;;;;;;5116363;28;20739;-91
2023/01/10 07:38:47;;;;;;;1.00;1.00;;;;;;;;;;5115965;28;20200;-91
2023/01/10 07:44:18;;;;;;;1.98;1.40;;;;;;;;;;5055330;27;20233;-91
2023/01/10 07:46:47;;;;;;;1.00;0.90;;;;;;;;;;5136809;27;20222;-92
2023/01/10 07:49:15;;;;;;;1.55;1.30;;;;;;;;;;5125997;27;20192;-91
2023/01/10 07:51:44;;;;;;;1.52;1.15;;;;;;;;;;5114778;28;20302;-91
2023/01/10 07:54:12;;;;;;;1.70;1.42;;;;;;;;;;5115602;28;20199;-91
2023/01/10 07:56:40;;;;;;;1.92;1.63;;;;;;;;;;5115863;28;20219;-91
2023/01/10 07:59:07;;;;;;;2.78;1.30;;;;;;;;;;5115974;28;20283;-92
2023/01/10 08:01:35;;;;;;;2.78;1.20;;;;;;;;;;5115735;28;20298;-91
2023/01/10 08:04:04;;;;;;;1.48;1.05;;;;;;;;;;5116056;28;20322;-92
2023/01/10 08:06:31;;;;;;;2.13;1.35;;;;;;;;;;5115115;28;20213;-91
2023/01/10 08:08:59;;;;;;;1.60;1.50;;;;;;;;;;5115294;28;20206;-92
2023/01/10 08:11:26;;;;;;;1.48;1.38;;;;;;;;;;5115902;28;20223;-92
2023/01/10 08:13:54;;;;;;;1.40;1.30;;;;;;;;;;5115842;28;20192;-92
2023/01/10 08:16:21;;;;;;;4.00;1.50;;;;;;;;;;5115862;28;20205;-91
2023/01/10 08:18:49;;;;;;;2.05;1.48;;;;;;;;;;5122089;27;20207;-92
2023/01/10 08:21:18;;;;;;;2.50;2.00;;;;;;;;;;5136177;27;20412;-91
2023/01/10 08:23:46;;;;;;;2.72;1.60;;;;;;;;;;5136389;27;20291;-92
2023/01/10 08:26:13;;;;;;;1.92;1.35;;;;;;;;;;5136394;27;20222;-91
2023/01/10 08:28:41;;;;;;;2.47;1.70;;;;;;;;;;5135805;27;20671;-91
2023/01/10 08:31:09;;;;;;;2.90;1.90;;;;;;;;;;5135794;27;20219;-91
2023/01/10 08:33:40;;;;;;;1.95;1.50;;;;;;;;;;5135949;27;20314;-91
2023/01/10 08:36:16;;;;;;;1.70;1.60;;;;;;;;;;5136039;27;20266;-91
2023/01/10 08:38:44;;;;;;;2.63;1.70;;;;;;;;;;5135258;27;20191;-92
2023/01/10 08:41:12;;;;;;;3.15;1.85;;;;;;;;;;5131164;27;20245;-92
2023/01/10 08:43:40;;;;;;;1.67;1.58;;;;;;;;;;5115445;28;20238;-92
2023/01/10 08:46:08;;;;;;;3.00;1.95;;;;;;;;;;5114829;28;20224;-92
2023/01/10 08:48:35;;;;;;;4.13;2.50;;;;;;;;;;5119720;27;20211;-92
2023/01/10 08:51:08;;;;;;;4.25;2.33;;;;;;;;;;5135703;27;20302;-92
2023/01/10 08:53:38;;;;;;;3.30;2.15;;;;;;;;;;5135818;27;20206;-91
2023/01/10 08:56:07;;;;;;;4.13;2.55;;;;;;;;;;5135747;27;20194;-92
2023/01/10 08:58:35;;;;;;;3.90;3.50;;;;;;;;;;5135128;27;20195;-92
2023/01/10 09:01:10;;;;;;;2.80;2.53;;;;;;;;;;5135149;27;20309;-92
2023/01/10 09:03:38;;;;;;;7.60;2.60;;;;;;;;;;5135592;27;20659;-92
2023/01/10 09:06:07;;;;;;;2.13;1.90;;;;;;;;;;5135204;27;20259;-91
2023/01/10 09:08:36;;;;;;;3.92;2.28;;;;;;;;;;5136435;27;20289;-91
2023/01/10 09:11:04;;;;;;;1.88;1.75;;;;;;;;;;5134696;27;20282;-92
2023/01/10 09:13:33;;;;;;;2.33;1.80;;;;;;;;;;5120558;28;20486;-92
2023/01/10 09:16:03;;;;;;;3.03;2.47;;;;;;;;;;5120585;28;20219;-93
2023/01/10 09:18:32;;;;;;;2.30;2.10;;;;;;;;;;5122157;27;20207;-92
2023/01/10 09:20:59;;;;;;;4.20;2.40;;;;;;;;;;5136477;27;20231;-93
2023/01/10 09:23:27;;;;;;;2.72;1.77;;;;;;;;;;5142828;27;20195;-93
2023/01/10 09:25:57;;;;;;;3.88;2.13;;;;;;;;;;5137395;27;20306;-92
2023/01/10 09:28:25;;;;;;;2.15;1.95;;;;;;;;;;5137294;27;20205;-92
2023/01/10 09:30:52;;;;;;;2.13;1.92;;;;;;;;;;5135848;27;20842;-92
2023/01/10 09:33:20;;;;;;;3.08;2.20;;;;;;;;;;5136820;27;20698;-91
2023/01/10 09:35:48;;;;;;;4.97;1.88;;;;;;;;;;5135751;27;20282;-91
2023/01/10 09:38:21;;;;;;;5.07;3.70;;;;;;;;;;5133544;27;20289;-90
2023/01/10 09:41:32;;;;;;;3.00;2.35;;;;;;;;;;5135315;27;20207;-92
2023/01/10 09:44:06;;;;;;;4.18;2.60;;;;;;;;;;5111048;27;20568;-91
2023/01/10 09:46:45;;;;;;;4.00;2.90;;;;;;;;;;5134929;27;20308;-92
2023/01/10 09:49:25;;;;;;;4.00;2.38;;;;;;;;;;5123828;27;20768;-92
2023/01/10 09:51:54;;;;;;;2.88;2.20;;;;;;;;;;5114062;28;20230;-91
2023/01/10 09:54:28;;;;;;;3.97;3.35;;;;;;;;;;5114057;28;20282;-92
2023/01/10 09:56:59;;;;;;;2.63;2.42;;;;;;;;;;5114086;28;20282;-92
2023/01/10 09:59:32;;;;;;;3.70;3.03;;;;;;;;;;5112612;28;20219;-91
2023/01/10 10:02:04;;;;;;;8.60;4.38;;;;;;;;;;5114191;28;20298;-92
2023/01/10 10:04:36;;;;;;;7.38;3.80;;;;;;;;;;5113776;28;20202;-90
2023/01/10 10:07:06;;;;;;;6.30;3.85;;;;;;;;;;5114070;28;20340;-92
2023/01/10 10:09:35;;;;;;;3.63;3.17;;;;;;;;;;5114062;28;20204;-93
2023/01/10 10:12:21;;;;;;;4.05;2.72;;;;;;;;;;5125653;27;20227;-92
2023/01/10 10:15:03;;;;;;;5.50;2.13;;;;;;;;;;5134594;27;20191;-92
2023/01/10 10:17:43;;;;;;;2.35;2.15;;;;;;;;;;5134136;27;20203;-91
2023/01/10 10:20:26;;;;;;;2.60;2.40;;;;;;;;;;5115110;27;20738;-91
2023/01/10 10:23:18;;;;;;;4.40;3.00;;;;;;;;;;5113313;28;20215;-91
2023/01/10 10:25:58;;;;;;;6.00;2.50;;;;;;;;;;5113991;28;20699;-92
2023/01/10 10:28:59;;;;;;;3.08;2.75;;;;;;;;;;5112931;28;20282;-92
2023/01/10 10:31:44;;;;;;;3.38;2.80;;;;;;;;;;5113631;28;20658;-92
2023/01/10 10:34:25;;;;;;;2.47;2.28;;;;;;;;;;5113905;28;20266;-91
2023/01/10 10:36:56;;;;;;;2.30;2.08;;;;;;;;;;5113939;28;20241;-92
2023/01/10 10:39:31;;;;;;;4.82;3.25;;;;;;;;;;5113474;28;20252;-92
2023/01/10 10:41:59;;;;;;;3.70;2.90;;;;;;;;;;5113006;28;20787;-92
2023/01/10 10:44:36;;;;;;;2.67;2.22;;;;;;;;;;5113759;28;20653;-92
2023/01/10 10:47:06;;;;;;;2.70;2.20;;;;;;;;;;5113444;28;20219;-91
2023/01/10 10:49:41;;;;;;;5.80;3.30;;;;;;;;;;5125426;28;20227;-91
2023/01/10 10:52:17;;;;;;;3.22;2.47;;;;;;;;;;5133614;28;20602;-92
2023/01/10 10:54:45;;;;;;;3.33;2.13;;;;;;;;;;5133720;27;20311;-92
2023/01/10 10:57:13;;;;;;;4.30;2.38;;;;;;;;;;5133294;28;20202;-90
2023/01/10 10:59:44;;;;;;;3.90;2.50;;;;;;;;;;5132715;28;20202;-90
2023/01/10 11:02:25;;;;;;;4.70;3.15;;;;;;;;;;5140143;27;20298;-92
2023/01/10 11:05:24;;;;;;;4.70;2.92;;;;;;;;;;5139240;27;20286;-92
2023/01/10 11:08:05;;;;;;;4.15;2.35;;;;;;;;;;5133826;28;20647;-91
2023/01/10 11:10:37;;;;;;;2.38;2.17;;;;;;;;;;5133359;28;20207;-92
2023/01/10 11:13:13;;;;;;;5.70;2.67;;;;;;;;;;5113358;28;20204;-90
2023/01/10 11:15:45;;;;;;;4.78;2.45;;;;;;;;;;5113519;28;20631;-91
2023/01/10 11:18:15;;;;;;;2.30;1.80;;;;;;;;;;5112722;28;20214;-92
2023/01/10 11:20:57;;;;;;;3.55;2.35;;;;;;;;;;5113193;28;20254;-92
2023/01/10 11:23:35;;;;;;;1.85;1.70;;;;;;;;;;5113423;28;20682;-92
2023/01/10 11:26:03;;;;;;;1.33;1.23;;;;;;;;;;5112811;28;20229;-92
2023/01/10 11:28:32;;;;;;;1.83;1.70;;;;;;;;;;5111981;28;20302;-91
2023/01/10 11:31:02;;;;;;;3.65;2.10;;;;;;;;;;5112689;28;20260;-91
2023/01/10 11:33:35;;;;;;;4.40;2.05;;;;;;;;;;5112823;28;20223;-93
2023/01/10 11:36:05;;;;;;;1.92;1.80;;;;;;;;;;5113014;28;20200;-92
2023/01/10 11:38:34;;;;;;;5.03;2.05;;;;;;;;;;5111782;28;20715;-91
2023/01/10 11:41:04;;;;;;;2.15;1.80;;;;;;;;;;5116871;27;20334;-91
2023/01/10 11:43:37;;;;;;;3.20;1.92;;;;;;;;;;5136780;27;20614;-91
2023/01/10 11:46:12;;;;;;;2.10;1.58;;;;;;;;;;5136123;27;20247;-91
2023/01/10 11:48:49;;;;;;;1.90;1.70;;;;;;;;;;5131061;27;20278;-91
2023/01/10 11:51:22;;;;;;;3.40;2.28;;;;;;;;;;5116195;28;20219;-91
2023/01/10 11:53:51;;;;;;;4.15;2.28;;;;;;;;;;5116202;28;20952;-91
2023/01/10 11:56:28;;;;;;;1.83;1.30;;;;;;;;;;5116343;28;20284;-93
2023/01/10 11:58:57;;;;;;;7.25;2.55;;;;;;;;;;5115516;28;20290;-91
2023/01/10 12:01:37;;;;;;;7.25;2.50;;;;;;;;;;5115957;28;20250;-91
2023/01/10 12:04:05;;;;;;;3.25;2.03;;;;;;;;;;5116040;28;20283;-91
2023/01/10 12:06:34;;;;;;;6.93;2.15;;;;;;;;;;5116003;28;20678;-92
2023/01/10 12:09:02;;;;;;;10.02;4.70;;;;;;;;;;5115860;28;20230;-91
2023/01/10 12:11:34;;;;;;;5.00;2.10;;;;;;;;;;5123698;27;20223;-91
2023/01/10 12:14:18;;;;;;;3.22;2.65;;;;;;;;;;5137377;27;20736;-91
2023/01/10 12:16:47;;;;;;;2.20;1.67;;;;;;;;;;5137924;27;20205;-92
2023/01/10 12:19:15;;;;;;;3.95;2.15;;;;;;;;;;5136976;27;20281;-92
2023/01/10 12:21:50;;;;;;;3.58;2.25;;;;;;;;;;5136333;27;20240;-91
2023/01/10 12:24:22;;;;;;;3.40;1.92;;;;;;;;;;5136361;27;20897;-91
2023/01/10 12:26:52;;;;;;;3.47;1.80;;;;;;;;;;5136572;27;20233;-92
2023/01/10 12:29:25;;;;;;;1.98;1.40;;;;;;;;;;5135953;27;20205;-90
2023/01/10 12:31:55;;;;;;;2.63;1.67;;;;;;;;;;5136071;27;20605;-91
2023/01/10 12:34:25;;;;;;;2.83;2.05;;;;;;;;;;5135874;27;20918;-90
2023/01/10 12:37:01;;;;;;;7.80;2.58;;;;;;;;;;5135912;27;20207;-90
2023/01/10 12:39:33;;;;;;;3.40;1.85;;;;;;;;;;5135020;27;20654;-90
2023/01/10 12:45:04;;;;;;;2.80;1.92;;;;;;;;;;5135706;27;20183;-90
2023/01/10 12:47:38;;;;;;;2.58;1.73;;;;;;;;;;5135427;27;20222;-91
2023/01/10 12:50:14;;;;;;;6.85;2.80;;;;;;;;;;5117285;27;20191;-90
2023/01/10 12:52:47;;;;;;;4.30;1.85;;;;;;;;;;5114691;28;20200;-90
2023/01/10 12:55:16;;;;;;;3.70;2.45;;;;;;;;;;5115252;28;20287;-90
2023/01/10 12:57:45;;;;;;;5.70;1.88;;;;;;;;;;5114738;28;20199;-91
2023/01/10 13:00:23;;;;;;;4.30;1.85;;;;;;;;;;5114185;28;20223;-90
2023/01/10 13:02:55;;;;;;;3.25;2.05;;;;;;;;;;5114669;28;20569;-92
2023/01/10 13:05:25;;;;;;;3.25;1.83;;;;;;;;;;5114652;28;20245;-89
2023/01/10 13:07:56;;;;;;;2.45;1.85;;;;;;;;;;5114719;28;20204;-90
2023/01/10 13:10:24;;;;;;;3.95;2.20;;;;;;;;;;5114405;28;20220;-91
2023/01/10 13:12:57;;;;;;;2.70;2.00;;;;;;;;;;5119446;28;20195;-90
2023/01/10 13:15:28;;;;;;;2.95;1.65;;;;;;;;;;5115218;28;20188;-90
2023/01/10 13:18:01;;;;;;;3.83;1.90;;;;;;;;;;5114494;28;20202;-91
2023/01/10 13:20:40;;;;;;;4.22;1.90;;;;;;;;;;5114096;28;20258;-90
2023/01/10 13:23:32;;;;;;;3.80;1.75;;;;;;;;;;5114690;28;20226;-91
2023/01/10 13:26:07;;;;;;;2.25;1.40;;;;;;;;;;5108879;28;20204;-91
2023/01/10 13:28:37;;;;;;;4.43;1.95;;;;;;;;;;5113470;28;20238;-91
2023/01/10 13:31:07;;;;;;;4.60;1.38;;;;;;;;;;5113961;28;20258;-91
2023/01/10 13:33:49;;;;;;;2.95;1.38;;;;;;;;;;5114003;28;20700;-90
2023/01/10 13:36:20;;;;;;;4.57;1.70;;;;;;;;;;5114070;28;20715;-91
2023/01/10 13:38:53;;;;;;;4.25;2.20;;;;;;;;;;5113635;28;20208;-91
2023/01/10 13:44:10;;;;;;;3.58;2.20;;;;;;;;;;5134637;27;20301;-91
2023/01/10 13:46:47;;;;;;;4.63;3.25;;;;;;;;;;5134489;27;20287;-91
2023/01/10 13:49:44;;;;;;;3.60;2.00;;;;;;;;;;5123593;27;20222;-91
2023/01/10 13:52:39;;;;;;;2.70;1.50;;;;;;;;;;5113799;28;20215;-91
2023/01/10 13:55:32;;;;;;;2.03;1.38;;;;;;;;;;5113827;28;20303;-89
2023/01/10 13:58:02;;;;;;;3.78;1.60;;;;;;;;;;5113263;28;20252;-90
2023/01/10 14:03:53;;;;;;;4.20;1.95;;;;;;;;;;5113021;28;20873;-90
2023/01/10 14:06:40;;;;;;;4.80;2.10;;;;;;;;;;5109171;28;20214;-92
2023/01/10 14:09:44;;;;;;;5.22;1.80;;;;;;;;;;5112723;28;20208;-90
2023/01/10 14:12:23;;;;;;;7.65;2.22;;;;;;;;;;5086794;28;20223;-91
2023/01/10 14:14:56;;;;;;;6.07;1.98;;;;;;;;;;5113237;28;20576;-90
2023/01/10 14:17:26;;;;;;;3.92;1.70;;;;;;;;;;5113273;28;20196;-90
2023/01/10 14:20:06;;;;;;;6.63;2.45;;;;;;;;;;5128112;27;20267;-87
2023/01/10 14:22:38;;;;;;;5.80;2.60;;;;;;;;;;5134026;27;20239;-90
2023/01/10 14:25:08;;;;;;;3.05;1.90;;;;;;;;;;5133828;27;20215;-90
2023/01/10 14:27:44;;;;;;;3.17;2.10;;;;;;;;;;5133468;27;20214;-88
2023/01/10 14:30:19;;;;;;;5.03;1.88;;;;;;;;;;5133034;27;20313;-90
2023/01/10 14:32:51;;;;;;;4.35;1.88;;;;;;;;;;5133780;27;20217;-89
2023/01/10 14:35:21;;;;;;;4.55;2.60;;;;;;;;;;5133412;27;20194;-91
2023/01/10 14:37:54;;;;;;;3.72;1.65;;;;;;;;;;5133403;27;20221;-89
2023/01/10 14:40:27;;;;;;;8.02;2.60;;;;;;;;;;5133134;28;20217;-88
2023/01/10 14:42:57;;;;;;;3.72;2.15;;;;;;;;;;5114210;28;20218;-90
2023/01/10 14:45:36;;;;;;;6.25;2.35;;;;;;;;;;5112844;28;20713;-89
2023/01/10 14:48:29;;;;;;;5.68;2.30;;;;;;;;;;5112298;28;20743;-89
2023/01/10 14:51:19;;;;;;;6.10;1.80;;;;;;;;;;5133820;28;20310;-90
2023/01/10 14:53:55;;;;;;;2.38;1.50;;;;;;;;;;5133816;28;20249;-91
2023/01/10 14:56:25;;;;;;;2.97;1.63;;;;;;;;;;5133545;28;20202;-90
2023/01/10 14:58:53;;;;;;;4.40;2.15;;;;;;;;;;5132668;28;20255;-90
2023/01/10 15:01:26;;;;;;;3.47;1.95;;;;;;;;;;5133656;28;20218;-90
2023/01/10 15:03:55;;;;;;;5.18;1.77;;;;;;;;;;5133321;28;20219;-89
2023/01/10 15:06:23;;;;;;;2.78;2.00;;;;;;;;;;5132367;27;20202;-90
2023/01/10 15:09:02;;;;;;;5.00;1.70;;;;;;;;;;5131047;27;20663;-90
2023/01/10 15:11:31;;;;;;;3.13;2.00;;;;;;;;;;5131128;28;20217;-89
2023/01/10 15:14:04;;;;;;;4.72;2.05;;;;;;;;;;5131909;28;20211;-89
2023/01/10 15:16:32;;;;;;;3.70;1.80;;;;;;;;;;5135626;27;20207;-89
2023/01/10 15:18:59;;;;;;;10.23;2.67;;;;;;;;;;5126856;27;20294;-89
2023/01/10 15:21:28;;;;;;;3.50;1.45;;;;;;;;;;5115018;28;20262;-90
2023/01/10 15:23:55;;;;;;;5.53;2.25;;;;;;;;;;5115090;28;20202;-90
2023/01/10 15:26:29;;;;;;;4.18;1.70;;;;;;;;;;5115193;28;20339;-90
2023/01/10 15:29:11;;;;;;;2.38;1.40;;;;;;;;;;5114300;28;20774;-88
2023/01/10 15:31:40;;;;;;;4.15;2.22;;;;;;;;;;5115016;28;20219;-89